Terminal Aerodrome Forecast
Issued by NWS

Home | Current Version | Previous Version | Text Only | Print | Product List | Glossary On
Versions: 1 2 3 4 5 6 7 8 9 10 11 12 13 14 15 16 17 18 19 20 21 22 23 24 25 26 27 28
000
FTPA31 PHFO 251700
TAFOGG
TAF
PHOG 251731Z 2518/2618 04008KT P6SM SCT050
     FM252000 05014G24KT P6SM FEW050
     FM260700 05008KT P6SM SCT050
      AMD LTD TO WX VIS AND WIND 2609/2616=

USA.gov is the U.S. government's official web portal to all federal, state and local government web resources and services.